createdAt,value
2022-08-05T00:02:07.957Z,3.00
2022-08-05T00:04:40.281Z,3.40
2022-08-05T00:07:27.193Z,3.15
2022-08-05T00:22:27.754Z,3.00
2022-08-05T00:25:45.352Z,3.40
2022-08-05T00:28:21.156Z,3.17
2022-08-05T00:30:58.269Z,3.20
2022-08-05T00:34:53.694Z,2.78
2022-08-05T00:37:10.545Z,3.20
2022-08-05T00:39:24.517Z,3.17
2022-08-05T00:42:32.279Z,3.20
2022-08-05T00:45:28.030Z,3.00
2022-08-05T00:48:11.236Z,3.20
2022-08-05T00:50:47.653Z,3.10
2022-08-05T00:54:01.456Z,3.25
2022-08-05T00:56:09.308Z,3.30
2022-08-05T00:58:44.975Z,3.20
2022-08-05T01:01:42.996Z,3.10
2022-08-05T01:04:14.161Z,3.20
2022-08-05T01:06:51.794Z,3.38
2022-08-05T01:09:21.039Z,2.95
2022-08-05T01:14:54.416Z,3.05
2022-08-05T01:17:40.166Z,3.40
2022-08-05T01:20:15.144Z,3.22
2022-08-05T01:22:57.186Z,3.10
2022-08-05T01:25:41.148Z,3.20
2022-08-05T01:28:32.338Z,3.22
2022-08-05T01:31:03.679Z,3.03
2022-08-05T01:33:36.010Z,3.15
2022-08-05T01:36:08.537Z,2.90
2022-08-05T01:38:42.875Z,3.20
2022-08-05T01:41:12.896Z,3.15
2022-08-05T01:43:46.319Z,3.08
2022-08-05T01:46:42.887Z,3.20
2022-08-05T01:52:17.508Z,3.15
2022-08-05T01:54:52.917Z,3.40
2022-08-05T01:58:11.542Z,3.47
2022-08-05T02:00:18.952Z,3.20
2022-08-05T02:05:42.509Z,3.15
2022-08-05T02:08:11.065Z,3.30
2022-08-05T02:10:41.603Z,3.20
2022-08-05T02:13:16.457Z,3.35
2022-08-05T02:16:10.012Z,3.15
2022-08-05T02:22:35.874Z,3.30
2022-08-05T02:25:12.717Z,3.47
2022-08-05T02:27:58.171Z,3.22
2022-08-05T02:30:34.501Z,3.30
2022-08-05T02:33:38.648Z,3.22
2022-08-05T02:36:10.179Z,3.50
2022-08-05T02:38:52.912Z,3.30
2022-08-05T02:41:57.764Z,3.60
2022-08-05T02:48:11.486Z,4.07
2022-08-05T03:04:24.245Z,3.58
2022-08-05T03:06:59.430Z,3.65
2022-08-05T03:09:57.171Z,3.72
2022-08-05T03:12:33.818Z,4.18
2022-08-05T03:15:07.499Z,4.03
2022-08-05T03:17:44.844Z,3.60
2022-08-05T03:20:16.814Z,3.90
2022-08-05T03:22:50.529Z,3.80
2022-08-05T03:25:33.938Z,3.80
2022-08-05T03:28:14.240Z,3.70
2022-08-05T03:31:10.696Z,3.95
2022-08-05T03:33:58.867Z,3.63
2022-08-05T03:36:35.037Z,3.95
2022-08-05T03:39:12.964Z,3.97
2022-08-05T03:41:48.341Z,3.95
2022-08-05T03:44:24.443Z,3.90
2022-08-05T03:46:53.396Z,3.65
2022-08-05T03:49:24.246Z,4.25
2022-08-05T03:52:37.090Z,3.92
2022-08-05T03:58:17.991Z,4.05
2022-08-05T04:01:07.588Z,3.97
2022-08-05T04:03:38.077Z,3.60
2022-08-05T04:06:08.739Z,4.00
2022-08-05T04:08:37.354Z,4.03
2022-08-05T04:11:09.847Z,4.30
2022-08-05T04:13:51.304Z,4.20
2022-08-05T04:16:24.091Z,4.10
2022-08-05T04:18:57.996Z,4.30
2022-08-05T04:22:09.469Z,4.03
2022-08-05T04:24:19.576Z,4.20
2022-08-05T04:26:51.335Z,5.30
2022-08-05T04:29:20.155Z,4.80
2022-08-05T04:32:31.254Z,4.57
2022-08-05T04:35:03.641Z,4.03
2022-08-05T04:38:02.272Z,4.20
2022-08-05T04:43:31.420Z,4.40
2022-08-05T04:46:05.034Z,4.18
2022-08-05T04:48:33.423Z,4.07
2022-08-05T04:51:11.328Z,3.95
2022-08-05T04:53:39.975Z,4.20
2022-08-05T04:56:33.769Z,4.00
2022-08-05T04:58:57.411Z,3.70
2022-08-05T05:02:08.030Z,3.85
2022-08-05T05:04:22.934Z,3.65
2022-08-05T05:07:39.275Z,4.07
2022-08-05T07:24:55.328Z,3.40
2022-08-05T08:31:17.306Z,3.38
2022-08-05T08:37:04.819Z,3.30
2022-08-05T08:40:19.731Z,3.40
2022-08-05T08:53:44.975Z,3.90
2022-08-05T08:56:47.883Z,3.58
2022-08-05T09:03:39.431Z,3.75
2022-08-05T09:06:44.199Z,3.55
2022-08-05T09:09:50.535Z,3.70
2022-08-05T09:12:27.895Z,3.70
2022-08-05T09:15:20.981Z,3.63
2022-08-05T09:18:14.275Z,3.88
2022-08-05T09:21:11.493Z,3.65
2022-08-05T09:24:27.387Z,4.03
2022-08-05T09:27:13.237Z,3.65
2022-08-05T09:32:41.002Z,3.33
2022-08-05T09:34:06.523Z,3.80
2022-08-05T09:41:28.366Z,3.80
2022-08-05T09:44:56.720Z,3.70
2022-08-05T09:47:56.559Z,3.80
2022-08-05T09:54:14.472Z,3.80
2022-08-05T09:57:26.570Z,3.95
2022-08-05T10:01:31.756Z,3.70
2022-08-05T10:04:29.398Z,3.72
2022-08-05T10:18:13.690Z,4.00
2022-08-05T10:24:29.782Z,3.70
2022-08-05T10:32:48.752Z,3.70
2022-08-05T10:33:34.358Z,3.50
2022-08-05T10:40:47.636Z,5.93
2022-08-05T10:44:10.942Z,3.60
2022-08-05T10:47:10.171Z,3.92
2022-08-05T10:51:04.543Z,3.33
2022-08-05T10:57:44.831Z,3.80
2022-08-05T11:27:14.477Z,4.00
2022-08-05T11:34:14.861Z,3.47
2022-08-05T11:36:59.603Z,3.83
2022-08-05T11:40:20.735Z,3.60
2022-08-05T11:42:54.016Z,3.78
2022-08-05T11:46:27.290Z,3.88
2022-08-05T11:48:32.612Z,3.67
2022-08-05T11:51:05.320Z,3.40
2022-08-05T11:53:45.735Z,3.90
2022-08-05T11:59:57.232Z,3.80
2022-08-05T12:02:40.133Z,3.58
2022-08-05T12:05:18.372Z,3.55
2022-08-05T12:08:18.237Z,3.58
2022-08-05T12:10:56.133Z,3.85
2022-08-05T12:14:15.781Z,3.70
2022-08-05T12:18:03.399Z,3.88
2022-08-05T12:24:08.024Z,3.45
2022-08-05T12:26:44.332Z,3.60
2022-08-05T12:29:16.216Z,3.70
2022-08-05T12:31:53.639Z,3.90
2022-08-05T12:34:55.403Z,3.63
2022-08-05T12:37:45.919Z,3.85
2022-08-05T12:40:29.618Z,3.83
2022-08-05T12:43:11.766Z,3.75
2022-08-05T12:46:00.476Z,3.60
2022-08-05T12:52:23.930Z,3.80
2022-08-05T12:54:59.943Z,3.80
2022-08-05T12:58:38.526Z,3.75
2022-08-05T13:02:03.769Z,3.63
2022-08-05T13:03:58.647Z,3.28
2022-08-05T13:07:59.381Z,3.50
2022-08-05T13:12:01.539Z,3.88
2022-08-05T13:15:24.052Z,3.70
2022-08-05T13:28:29.029Z,3.50
2022-08-05T13:31:13.990Z,3.80
2022-08-05T13:42:38.870Z,3.70
2022-08-05T13:45:46.686Z,3.33
2022-08-05T13:54:53.553Z,3.70
2022-08-05T13:57:55.377Z,3.67
2022-08-05T14:01:07.052Z,3.55
2022-08-05T14:12:04.500Z,3.30
2022-08-05T14:29:45.238Z,3.55
2022-08-05T14:37:17.752Z,3.33
2022-08-05T14:41:06.647Z,3.45
2022-08-05T15:10:03.330Z,3.08
2022-08-05T15:25:14.321Z,3.40
2022-08-05T15:28:00.021Z,3.10
2022-08-05T15:41:59.156Z,2.92
2022-08-05T15:53:51.231Z,3.50
2022-08-05T16:07:38.778Z,3.67
2022-08-05T16:10:25.607Z,3.67
2022-08-05T16:13:19.247Z,3.50
2022-08-05T16:16:25.449Z,3.63
2022-08-05T16:22:43.381Z,3.83
2022-08-05T16:34:23.031Z,3.58
2022-08-05T17:53:59.821Z,4.30
2022-08-05T18:05:39.053Z,4.20
2022-08-05T18:12:12.506Z,4.30
2022-08-05T18:15:38.509Z,4.40
2022-08-05T18:22:07.154Z,3.90
2022-08-05T18:25:17.386Z,4.07
2022-08-05T18:28:04.894Z,4.15
2022-08-05T18:31:22.085Z,4.10
2022-08-05T18:34:02.676Z,3.85
2022-08-05T18:36:36.592Z,4.40
2022-08-05T18:39:42.220Z,4.25
2022-08-05T18:42:32.946Z,4.60
2022-08-05T18:45:22.223Z,4.13
2022-08-05T18:48:31.399Z,4.30
2022-08-05T18:54:49.449Z,4.43
2022-08-05T18:57:23.893Z,4.38
2022-08-05T19:00:02.415Z,4.72
2022-08-05T19:02:45.966Z,4.70
2022-08-05T19:06:13.495Z,5.03
2022-08-05T19:08:21.800Z,6.20
2022-08-05T19:11:37.067Z,5.90
2022-08-05T19:31:58.399Z,5.70
2022-08-05T19:44:13.848Z,5.20
2022-08-05T19:46:45.970Z,4.65
2022-08-05T19:49:33.489Z,4.88
2022-08-05T19:53:09.564Z,4.90
2022-08-05T19:56:20.712Z,4.88
2022-08-05T19:59:55.751Z,5.07
2022-08-05T20:02:32.471Z,5.20
2022-08-05T20:05:51.478Z,5.18
2022-08-05T20:22:37.742Z,4.55
2022-08-05T20:25:47.552Z,5.22
2022-08-05T20:28:41.444Z,4.60
2022-08-05T20:31:58.369Z,5.07
2022-08-05T20:38:07.707Z,4.63
2022-08-05T20:41:44.580Z,4.63
2022-08-05T20:44:52.344Z,4.88
2022-08-05T20:51:07.162Z,4.80
2022-08-05T20:53:56.600Z,5.15
2022-08-05T20:57:24.610Z,5.22
2022-08-05T21:00:51.999Z,5.30
2022-08-05T21:03:35.950Z,5.30
2022-08-05T21:06:45.572Z,5.00
2022-08-05T21:09:28.911Z,5.32
2022-08-05T21:12:12.119Z,5.20
2022-08-05T21:15:22.010Z,5.43
2022-08-05T21:17:52.441Z,6.60
2022-08-05T21:26:34.082Z,4.70
2022-08-05T21:32:22.238Z,5.00
2022-08-05T21:35:18.126Z,5.18
2022-08-05T21:38:01.691Z,5.20
2022-08-05T21:40:39.591Z,8.38
2022-08-05T21:43:27.516Z,8.35
2022-08-05T21:46:09.663Z,5.75
2022-08-05T21:48:40.327Z,6.30
2022-08-05T21:51:25.129Z,5.97
2022-08-05T21:53:59.536Z,5.85
2022-08-05T21:56:31.957Z,6.22
2022-08-05T21:59:07.793Z,6.63
2022-08-05T22:01:36.764Z,6.05
2022-08-05T22:04:05.513Z,5.90
2022-08-05T22:06:35.247Z,5.65
2022-08-05T22:09:13.601Z,6.05
2022-08-05T22:11:43.574Z,6.07
2022-08-05T22:14:35.639Z,5.95
2022-08-05T22:17:06.632Z,5.82
2022-08-05T22:20:02.076Z,6.10
2022-08-05T22:22:55.704Z,6.00
2022-08-05T22:26:09.292Z,6.13
2022-08-05T22:28:33.326Z,5.65
2022-08-05T22:31:05.774Z,5.68
2022-08-05T22:33:56.975Z,6.10
2022-08-05T22:36:24.310Z,5.50
2022-08-05T22:38:53.658Z,5.72
2022-08-05T22:42:10.632Z,5.45
2022-08-05T22:44:32.316Z,5.50
2022-08-05T22:47:29.237Z,5.60
2022-08-05T22:50:20.046Z,5.78
2022-08-05T22:52:48.147Z,5.85
2022-08-05T22:55:19.149Z,5.50
2022-08-05T22:57:50.054Z,5.53
2022-08-05T23:00:20.811Z,5.40
2022-08-05T23:02:52.188Z,5.45
2022-08-05T23:05:22.293Z,5.63
2022-08-05T23:07:51.386Z,5.70
2022-08-05T23:10:20.700Z,5.55
2022-08-05T23:12:51.661Z,5.28
2022-08-05T23:15:29.637Z,5.57
2022-08-05T23:18:11.314Z,5.40
2022-08-05T23:20:40.054Z,5.75
2022-08-05T23:23:11.705Z,5.40
2022-08-05T23:25:51.178Z,5.72
2022-08-05T23:28:23.963Z,5.50
2022-08-05T23:31:06.999Z,5.50
2022-08-05T23:34:06.238Z,5.40
2022-08-05T23:36:40.085Z,5.90
2022-08-05T23:39:17.387Z,5.78
2022-08-05T23:41:52.008Z,5.60
2022-08-05T23:44:25.187Z,5.20
2022-08-05T23:46:59.989Z,5.50
2022-08-05T23:49:33.842Z,5.40
2022-08-05T23:52:22.171Z,5.57
2022-08-05T23:54:53.628Z,5.55
2022-08-05T23:57:22.377Z,5.30
